sensor_id;sensor_type;location;lat;lon;timestamp;pressure;altitude;pressure_sealevel;temperature;humidity
35291;BME280;21411;50.024;19.220;2022-10-31T00:00:43;99327.79;;;8.32;100.00
35291;BME280;21411;50.024;19.220;2022-10-31T00:03:29;99327.39;;;8.30;100.00
35291;BME280;21411;50.024;19.220;2022-10-31T00:05:56;99327.30;;;8.28;100.00
35291;BME280;21411;50.024;19.220;2022-10-31T00:08:22;99325.09;;;8.26;100.00
35291;BME280;21411;50.024;19.220;2022-10-31T00:10:49;99324.14;;;8.24;100.00
35291;BME280;21411;50.024;19.220;2022-10-31T00:13:16;99326.33;;;8.23;100.00
35291;BME280;21411;50.024;19.220;2022-10-31T00:15:42;99328.36;;;8.21;100.00
35291;BME280;21411;50.024;19.220;2022-10-31T00:18:10;99325.92;;;8.21;100.00
35291;BME280;21411;50.024;19.220;2022-10-31T00:20:37;99327.09;;;8.19;100.00
35291;BME280;21411;50.024;19.220;2022-10-31T00:23:04;99324.00;;;8.17;100.00
35291;BME280;21411;50.024;19.220;2022-10-31T00:25:38;99325.71;;;8.14;100.00
35291;BME280;21411;50.024;19.220;2022-10-31T00:28:06;99324.06;;;8.12;100.00
35291;BME280;21411;50.024;19.220;2022-10-31T00:30:33;99326.09;;;8.10;100.00
35291;BME280;21411;50.024;19.220;2022-10-31T00:33:00;99328.45;;;8.09;100.00
35291;BME280;21411;50.024;19.220;2022-10-31T00:35:26;99325.33;;;8.08;100.00
35291;BME280;21411;50.024;19.220;2022-10-31T00:37:53;99331.08;;;8.06;100.00
35291;BME280;21411;50.024;19.220;2022-10-31T00:40:19;99330.67;;;8.04;100.00
35291;BME280;21411;50.024;19.220;2022-10-31T00:42:46;99330.92;;;8.02;100.00
35291;BME280;21411;50.024;19.220;2022-10-31T00:45:13;99333.65;;;8.01;100.00
35291;BME280;21411;50.024;19.220;2022-10-31T00:47:39;99331.98;;;7.99;100.00
35291;BME280;21411;50.024;19.220;2022-10-31T00:50:06;99331.13;;;7.99;100.00
35291;BME280;21411;50.024;19.220;2022-10-31T00:52:33;99330.21;;;7.99;100.00
35291;BME280;21411;50.024;19.220;2022-10-31T00:55:00;99328.73;;;7.97;100.00
35291;BME280;21411;50.024;19.220;2022-10-31T00:57:27;99328.49;;;7.95;100.00
35291;BME280;21411;50.024;19.220;2022-10-31T00:59:53;99331.79;;;7.92;100.00
35291;BME280;21411;50.024;19.220;2022-10-31T01:02:20;99333.67;;;7.89;100.00
35291;BME280;21411;50.024;19.220;2022-10-31T01:04:46;99332.62;;;7.86;100.00
35291;BME280;21411;50.024;19.220;2022-10-31T01:07:13;99335.91;;;7.84;100.00
35291;BME280;21411;50.024;19.220;2022-10-31T01:09:40;99338.14;;;7.82;100.00
35291;BME280;21411;50.024;19.220;2022-10-31T01:12:07;99336.00;;;7.82;100.00
35291;BME280;21411;50.024;19.220;2022-10-31T01:14:34;99334.69;;;7.84;100.00
35291;BME280;21411;50.024;19.220;2022-10-31T01:17:01;99334.59;;;7.82;100.00
35291;BME280;21411;50.024;19.220;2022-10-31T01:19:29;99333.34;;;7.79;100.00
35291;BME280;21411;50.024;19.220;2022-10-31T01:21:55;99332.54;;;7.77;100.00
35291;BME280;21411;50.024;19.220;2022-10-31T01:24:22;99331.30;;;7.74;100.00
35291;BME280;21411;50.024;19.220;2022-10-31T01:26:48;99328.98;;;7.71;100.00
35291;BME280;21411;50.024;19.220;2022-10-31T01:29:15;99330.48;;;7.69;100.00
35291;BME280;21411;50.024;19.220;2022-10-31T01:31:42;99336.04;;;7.67;100.00
35291;BME280;21411;50.024;19.220;2022-10-31T01:34:12;99337.90;;;7.65;100.00
35291;BME280;21411;50.024;19.220;2022-10-31T01:36:40;99336.17;;;7.64;100.00
35291;BME280;21411;50.024;19.220;2022-10-31T01:39:11;99332.20;;;7.63;100.00
35291;BME280;21411;50.024;19.220;2022-10-31T01:41:41;99329.91;;;7.62;100.00
35291;BME280;21411;50.024;19.220;2022-10-31T01:49:17;99328.11;;;7.63;100.00
35291;BME280;21411;50.024;19.220;2022-10-31T01:51:49;99328.73;;;7.61;100.00
35291;BME280;21411;50.024;19.220;2022-10-31T01:54:21;99331.13;;;7.59;100.00
35291;BME280;21411;50.024;19.220;2022-10-31T01:56:52;99333.95;;;7.56;100.00
35291;BME280;21411;50.024;19.220;2022-10-31T01:59:20;99333.27;;;7.56;100.00
35291;BME280;21411;50.024;19.220;2022-10-31T02:01:49;99337.48;;;7.56;100.00
35291;BME280;21411;50.024;19.220;2022-10-31T02:04:18;99336.08;;;7.56;100.00
35291;BME280;21411;50.024;19.220;2022-10-31T02:06:56;99335.29;;;7.54;100.00
35291;BME280;21411;50.024;19.220;2022-10-31T02:09:25;99332.34;;;7.53;100.00
35291;BME280;21411;50.024;19.220;2022-10-31T02:11:56;99330.34;;;7.51;100.00
35291;BME280;21411;50.024;19.220;2022-10-31T02:14:25;99330.11;;;7.48;100.00
35291;BME280;21411;50.024;19.220;2022-10-31T02:16:54;99328.11;;;7.45;100.00
35291;BME280;21411;50.024;19.220;2022-10-31T02:33:41;99335.09;;;7.29;100.00
35291;BME280;21411;50.024;19.220;2022-10-31T02:36:12;99333.55;;;7.28;100.00
35291;BME280;21411;50.024;19.220;2022-10-31T02:38:52;99336.26;;;7.27;100.00
35291;BME280;21411;50.024;19.220;2022-10-31T02:41:40;99339.98;;;7.26;100.00
35291;BME280;21411;50.024;19.220;2022-10-31T02:47:05;99340.77;;;7.25;100.00
35291;BME280;21411;50.024;19.220;2022-10-31T02:49:50;99342.02;;;7.24;100.00
35291;BME280;21411;50.024;19.220;2022-10-31T02:52:29;99342.52;;;7.25;100.00
35291;BME280;21411;50.024;19.220;2022-10-31T02:54:56;99345.48;;;7.26;100.00
35291;BME280;21411;50.024;19.220;2022-10-31T02:57:30;99352.83;;;7.27;100.00
35291;BME280;21411;50.024;19.220;2022-10-31T03:00:37;99352.55;;;7.30;100.00
35291;BME280;21411;50.024;19.220;2022-10-31T03:03:15;99355.16;;;7.31;100.00
35291;BME280;21411;50.024;19.220;2022-10-31T03:06:03;99356.73;;;7.31;100.00
35291;BME280;21411;50.024;19.220;2022-10-31T03:08:52;99358.33;;;7.31;100.00
35291;BME280;21411;50.024;19.220;2022-10-31T03:11:24;99360.52;;;7.33;100.00
35291;BME280;21411;50.024;19.220;2022-10-31T03:13:59;99362.05;;;7.34;100.00
35291;BME280;21411;50.024;19.220;2022-10-31T03:16:45;99363.49;;;7.33;100.00
35291;BME280;21411;50.024;19.220;2022-10-31T03:19:26;99362.22;;;7.31;100.00
35291;BME280;21411;50.024;19.220;2022-10-31T03:21:58;99364.27;;;7.29;100.00
35291;BME280;21411;50.024;19.220;2022-10-31T03:24:31;99361.77;;;7.26;100.00
35291;BME280;21411;50.024;19.220;2022-10-31T03:26:59;99364.44;;;7.21;100.00
35291;BME280;21411;50.024;19.220;2022-10-31T03:29:30;99361.19;;;7.19;100.00
35291;BME280;21411;50.024;19.220;2022-10-31T03:32:13;99360.10;;;7.19;100.00
35291;BME280;21411;50.024;19.220;2022-10-31T03:34:42;99361.32;;;7.20;100.00
35291;BME280;21411;50.024;19.220;2022-10-31T03:37:14;99360.68;;;7.18;100.00
35291;BME280;21411;50.024;19.220;2022-10-31T03:39:43;99360.63;;;7.16;100.00
35291;BME280;21411;50.024;19.220;2022-10-31T03:42:15;99362.13;;;7.14;100.00
35291;BME280;21411;50.024;19.220;2022-10-31T03:44:47;99368.02;;;7.13;100.00
35291;BME280;21411;50.024;19.220;2022-10-31T03:47:16;99367.70;;;7.08;100.00
35291;BME280;21411;50.024;19.220;2022-10-31T03:49:43;99369.45;;;7.05;100.00
35291;BME280;21411;50.024;19.220;2022-10-31T03:52:17;99368.71;;;7.02;100.00
35291;BME280;21411;50.024;19.220;2022-10-31T03:55:10;99375.73;;;6.99;100.00
35291;BME280;21411;50.024;19.220;2022-10-31T03:57:43;99378.32;;;6.96;100.00
35291;BME280;21411;50.024;19.220;2022-10-31T04:00:13;99379.48;;;6.94;100.00
35291;BME280;21411;50.024;19.220;2022-10-31T04:02:46;99376.94;;;6.92;100.00
35291;BME280;21411;50.024;19.220;2022-10-31T04:05:16;99379.73;;;6.89;100.00
35291;BME280;21411;50.024;19.220;2022-10-31T04:07:47;99377.16;;;6.87;100.00
35291;BME280;21411;50.024;19.220;2022-10-31T04:10:17;99378.63;;;6.86;100.00
35291;BME280;21411;50.024;19.220;2022-10-31T04:12:50;99384.52;;;6.85;100.00
35291;BME280;21411;50.024;19.220;2022-10-31T04:15:19;99385.12;;;6.83;100.00
35291;BME280;21411;50.024;19.220;2022-10-31T04:17:47;99383.32;;;6.79;100.00
35291;BME280;21411;50.024;19.220;2022-10-31T04:20:16;99384.23;;;6.79;100.00
35291;BME280;21411;50.024;19.220;2022-10-31T04:22:43;99383.30;;;6.76;100.00
35291;BME280;21411;50.024;19.220;2022-10-31T04:25:10;99382.89;;;6.73;100.00
35291;BME280;21411;50.024;19.220;2022-10-31T04:27:37;99382.08;;;6.72;100.00
35291;BME280;21411;50.024;19.220;2022-10-31T04:30:04;99381.59;;;6.71;100.00
35291;BME280;21411;50.024;19.220;2022-10-31T04:32:31;99380.78;;;6.69;100.00
35291;BME280;21411;50.024;19.220;2022-10-31T04:34:58;99380.26;;;6.69;100.00
35291;BME280;21411;50.024;19.220;2022-10-31T04:37:24;99379.63;;;6.67;100.00
35291;BME280;21411;50.024;19.220;2022-10-31T04:39:51;99381.96;;;6.67;100.00
35291;BME280;21411;50.024;19.220;2022-10-31T04:42:17;99386.15;;;6.68;100.00
35291;BME280;21411;50.024;19.220;2022-10-31T04:44:44;99385.82;;;6.67;100.00
35291;BME280;21411;50.024;19.220;2022-10-31T04:47:10;99381.60;;;6.67;100.00
35291;BME280;21411;50.024;19.220;2022-10-31T04:49:37;99383.50;;;6.64;100.00
35291;BME280;21411;50.024;19.220;2022-10-31T04:52:03;99385.45;;;6.60;100.00
35291;BME280;21411;50.024;19.220;2022-10-31T04:54:30;99388.28;;;6.56;100.00
35291;BME280;21411;50.024;19.220;2022-10-31T04:56:57;99390.16;;;6.53;100.00
35291;BME280;21411;50.024;19.220;2022-10-31T04:59:23;99388.72;;;6.49;100.00
35291;BME280;21411;50.024;19.220;2022-10-31T05:01:50;99392.42;;;6.45;100.00
35291;BME280;21411;50.024;19.220;2022-10-31T05:04:16;99390.73;;;6.40;100.00
35291;BME280;21411;50.024;19.220;2022-10-31T05:06:43;99398.91;;;6.34;100.00
35291;BME280;21411;50.024;19.220;2022-10-31T05:09:10;99398.54;;;6.31;100.00
35291;BME280;21411;50.024;19.220;2022-10-31T05:11:36;99397.08;;;6.28;100.00
35291;BME280;21411;50.024;19.220;2022-10-31T05:14:03;99400.67;;;6.26;100.00
35291;BME280;21411;50.024;19.220;2022-10-31T05:16:30;99398.24;;;6.25;100.00
35291;BME280;21411;50.024;19.220;2022-10-31T05:18:56;99397.21;;;6.25;100.00
35291;BME280;21411;50.024;19.220;2022-10-31T05:21:23;99398.92;;;6.22;100.00
35291;BME280;21411;50.024;19.220;2022-10-31T05:23:49;99400.82;;;6.19;100.00
35291;BME280;21411;50.024;19.220;2022-10-31T05:26:16;99402.85;;;6.16;100.00
35291;BME280;21411;50.024;19.220;2022-10-31T05:28:42;99403.03;;;6.17;100.00
35291;BME280;21411;50.024;19.220;2022-10-31T05:31:09;99405.61;;;6.18;100.00
35291;BME280;21411;50.024;19.220;2022-10-31T05:33:36;99407.75;;;6.18;100.00
35291;BME280;21411;50.024;19.220;2022-10-31T05:36:03;99412.80;;;6.15;100.00
35291;BME280;21411;50.024;19.220;2022-10-31T05:38:29;99416.05;;;6.13;100.00
35291;BME280;21411;50.024;19.220;2022-10-31T05:40:56;99418.48;;;6.14;100.00
35291;BME280;21411;50.024;19.220;2022-10-31T05:43:28;99418.05;;;6.15;100.00
35291;BME280;21411;50.024;19.220;2022-10-31T05:45:56;99422.97;;;6.17;100.00
35291;BME280;21411;50.024;19.220;2022-10-31T05:48:22;99425.35;;;6.19;100.00
35291;BME280;21411;50.024;19.220;2022-10-31T05:50:49;99426.27;;;6.22;100.00
35291;BME280;21411;50.024;19.220;2022-10-31T05:53:16;99424.72;;;6.25;100.00
35291;BME280;21411;50.024;19.220;2022-10-31T05:55:43;99425.33;;;6.27;100.00
35291;BME280;21411;50.024;19.220;2022-10-31T05:58:10;99429.97;;;6.30;100.00
35291;BME280;21411;50.024;19.220;2022-10-31T06:00:38;99432.16;;;6.36;100.00
35291;BME280;21411;50.024;19.220;2022-10-31T06:03:07;99433.07;;;6.44;100.00
35291;BME280;21411;50.024;19.220;2022-10-31T06:05:34;99435.48;;;6.54;100.00
35291;BME280;21411;50.024;19.220;2022-10-31T06:08:01;99434.02;;;6.59;100.00
35291;BME280;21411;50.024;19.220;2022-10-31T06:10:28;99432.63;;;6.63;100.00
35291;BME280;21411;50.024;19.220;2022-10-31T06:12:55;99431.02;;;6.67;100.00
35291;BME280;21411;50.024;19.220;2022-10-31T06:15:21;99427.02;;;6.70;100.00
35291;BME280;21411;50.024;19.220;2022-10-31T06:17:57;99428.81;;;6.73;100.00
35291;BME280;21411;50.024;19.220;2022-10-31T06:20:24;99429.67;;;6.77;100.00
35291;BME280;21411;50.024;19.220;2022-10-31T06:22:50;99432.94;;;6.84;100.00
35291;BME280;21411;50.024;19.220;2022-10-31T06:25:17;99433.66;;;6.91;100.00
35291;BME280;21411;50.024;19.220;2022-10-31T06:27:43;99437.72;;;6.99;100.00
35291;BME280;21411;50.024;19.220;2022-10-31T06:30:10;99439.59;;;7.08;100.00
35291;BME280;21411;50.024;19.220;2022-10-31T06:32:37;99446.15;;;7.20;100.00
35291;BME280;21411;50.024;19.220;2022-10-31T06:35:04;99443.34;;;7.31;100.00
35291;BME280;21411;50.024;19.220;2022-10-31T06:37:30;99448.98;;;7.42;100.00
35291;BME280;21411;50.024;19.220;2022-10-31T06:39:57;99448.98;;;7.54;100.00
35291;BME280;21411;50.024;19.220;2022-10-31T06:42:24;99448.30;;;7.64;100.00
35291;BME280;21411;50.024;19.220;2022-10-31T06:44:50;99448.20;;;7.74;100.00
35291;BME280;21411;50.024;19.220;2022-10-31T06:47:17;99447.20;;;7.84;100.00
35291;BME280;21411;50.024;19.220;2022-10-31T06:49:43;99450.23;;;7.94;100.00
35291;BME280;21411;50.024;19.220;2022-10-31T06:52:10;99452.20;;;8.05;100.00
35291;BME280;21411;50.024;19.220;2022-10-31T06:54:37;99451.84;;;8.16;100.00
35291;BME280;21411;50.024;19.220;2022-10-31T06:57:03;99455.33;;;8.27;100.00
35291;BME280;21411;50.024;19.220;2022-10-31T06:59:30;99456.13;;;8.40;100.00
35291;BME280;21411;50.024;19.220;2022-10-31T07:01:57;99457.48;;;8.52;100.00
35291;BME280;21411;50.024;19.220;2022-10-31T07:04:24;99455.98;;;8.64;100.00
35291;BME280;21411;50.024;19.220;2022-10-31T07:06:51;99455.33;;;8.76;100.00
35291;BME280;21411;50.024;19.220;2022-10-31T07:09:19;99450.64;;;8.88;100.00
35291;BME280;21411;50.024;19.220;2022-10-31T07:11:46;99453.22;;;9.00;100.00
35291;BME280;21411;50.024;19.220;2022-10-31T07:14:12;99452.77;;;9.12;100.00
35291;BME280;21411;50.024;19.220;2022-10-31T07:16:39;99453.52;;;9.24;100.00
35291;BME280;21411;50.024;19.220;2022-10-31T07:19:05;99456.98;;;9.35;100.00
35291;BME280;21411;50.024;19.220;2022-10-31T07:21:32;99460.95;;;9.47;100.00
35291;BME280;21411;50.024;19.220;2022-10-31T07:23:58;99460.13;;;9.59;100.00
35291;BME280;21411;50.024;19.220;2022-10-31T07:26:25;99456.63;;;9.70;100.00
35291;BME280;21411;50.024;19.220;2022-10-31T07:28:54;99457.02;;;9.82;100.00
35291;BME280;21411;50.024;19.220;2022-10-31T07:31:20;99459.52;;;9.95;100.00
35291;BME280;21411;50.024;19.220;2022-10-31T07:33:47;99460.50;;;10.05;100.00
35291;BME280;21411;50.024;19.220;2022-10-31T07:36:13;99459.73;;;10.16;100.00
35291;BME280;21411;50.024;19.220;2022-10-31T07:38:41;99460.55;;;10.26;100.00
35291;BME280;21411;50.024;19.220;2022-10-31T07:41:08;99460.08;;;10.38;100.00
35291;BME280;21411;50.024;19.220;2022-10-31T07:43:34;99464.61;;;10.48;100.00
35291;BME280;21411;50.024;19.220;2022-10-31T07:46:01;99467.20;;;10.59;100.00
35291;BME280;21411;50.024;19.220;2022-10-31T07:48:27;99468.27;;;10.68;100.00
35291;BME280;21411;50.024;19.220;2022-10-31T07:50:54;99474.52;;;10.76;100.00
35291;BME280;21411;50.024;19.220;2022-10-31T07:53:21;99478.88;;;10.86;100.00
35291;BME280;21411;50.024;19.220;2022-10-31T07:55:47;99476.06;;;10.95;100.00
35291;BME280;21411;50.024;19.220;2022-10-31T07:58:15;99469.29;;;11.04;100.00
35291;BME280;21411;50.024;19.220;2022-10-31T08:00:44;99467.09;;;11.13;100.00
35291;BME280;21411;50.024;19.220;2022-10-31T08:03:16;99468.38;;;11.25;100.00
35291;BME280;21411;50.024;19.220;2022-10-31T08:05:43;99468.86;;;11.34;100.00
35291;BME280;21411;50.024;19.220;2022-10-31T08:08:12;99468.82;;;11.43;100.00
35291;BME280;21411;50.024;19.220;2022-10-31T08:10:39;99465.66;;;11.51;100.00
35291;BME280;21411;50.024;19.220;2022-10-31T08:13:11;99465.34;;;11.59;100.00
35291;BME280;21411;50.024;19.220;2022-10-31T08:15:38;99467.40;;;11.68;100.00
35291;BME280;21411;50.024;19.220;2022-10-31T08:18:12;99470.61;;;11.79;100.00
35291;BME280;21411;50.024;19.220;2022-10-31T08:20:40;99467.52;;;11.89;100.00
35291;BME280;21411;50.024;19.220;2022-10-31T08:23:09;99466.37;;;11.98;100.00
35291;BME280;21411;50.024;19.220;2022-10-31T08:25:36;99463.23;;;12.09;100.00
35291;BME280;21411;50.024;19.220;2022-10-31T08:28:03;99462.21;;;12.19;100.00
35291;BME280;21411;50.024;19.220;2022-10-31T08:30:33;99462.33;;;12.27;100.00
35291;BME280;21411;50.024;19.220;2022-10-31T08:33:04;99462.00;;;12.38;100.00
35291;BME280;21411;50.024;19.220;2022-10-31T08:35:32;99465.23;;;12.48;100.00
35291;BME280;21411;50.024;19.220;2022-10-31T08:38:00;99463.28;;;12.58;100.00
35291;BME280;21411;50.024;19.220;2022-10-31T08:40:28;99465.64;;;12.68;100.00
35291;BME280;21411;50.024;19.220;2022-10-31T08:43:00;99465.50;;;12.78;100.00
35291;BME280;21411;50.024;19.220;2022-10-31T08:45:28;99462.48;;;12.88;100.00
35291;BME280;21411;50.024;19.220;2022-10-31T08:48:00;99457.56;;;12.98;100.00
35291;BME280;21411;50.024;19.220;2022-10-31T08:50:28;99456.16;;;13.08;100.00
35291;BME280;21411;50.024;19.220;2022-10-31T08:53:07;99456.27;;;13.19;100.00
35291;BME280;21411;50.024;19.220;2022-10-31T08:55:34;99458.09;;;13.31;100.00
35291;BME280;21411;50.024;19.220;2022-10-31T08:58:03;99454.54;;;13.44;100.00
35291;BME280;21411;50.024;19.220;2022-10-31T09:00:31;99452.22;;;13.56;100.00
35291;BME280;21411;50.024;19.220;2022-10-31T09:02:59;99452.65;;;13.68;100.00
35291;BME280;21411;50.024;19.220;2022-10-31T09:05:27;99456.58;;;13.77;100.00
35291;BME280;21411;50.024;19.220;2022-10-31T09:07:58;99460.13;;;13.87;100.00
35291;BME280;21411;50.024;19.220;2022-10-31T09:10:26;99459.80;;;13.97;100.00
35291;BME280;21411;50.024;19.220;2022-10-31T09:13:01;99456.62;;;14.06;100.00
35291;BME280;21411;50.024;19.220;2022-10-31T09:15:30;99454.21;;;14.14;100.00
35291;BME280;21411;50.024;19.220;2022-10-31T09:17:56;99459.58;;;14.24;100.00
35291;BME280;21411;50.024;19.220;2022-10-31T09:20:23;99456.20;;;14.36;100.00
35291;BME280;21411;50.024;19.220;2022-10-31T09:22:57;99454.77;;;14.48;100.00
35291;BME280;21411;50.024;19.220;2022-10-31T09:25:25;99459.92;;;14.58;100.00
35291;BME280;21411;50.024;19.220;2022-10-31T09:27:58;99457.57;;;14.68;100.00
35291;BME280;21411;50.024;19.220;2022-10-31T09:30:27;99462.42;;;14.77;100.00
35291;BME280;21411;50.024;19.220;2022-10-31T09:33:10;99463.95;;;14.87;100.00
35291;BME280;21411;50.024;19.220;2022-10-31T09:35:37;99462.55;;;14.98;100.00
35291;BME280;21411;50.024;19.220;2022-10-31T09:38:07;99462.97;;;15.06;100.00
35291;BME280;21411;50.024;19.220;2022-10-31T09:40:35;99463.84;;;15.16;100.00
35291;BME280;21411;50.024;19.220;2022-10-31T09:45:55;99462.08;;;15.41;100.00
35291;BME280;21411;50.024;19.220;2022-10-31T09:51:00;99463.14;;;15.61;100.00
35291;BME280;21411;50.024;19.220;2022-10-31T09:53:35;99461.61;;;15.71;100.00
35291;BME280;21411;50.024;19.220;2022-10-31T09:56:08;99459.81;;;15.83;100.00
35291;BME280;21411;50.024;19.220;2022-10-31T09:58:41;99455.52;;;15.91;100.00
35291;BME280;21411;50.024;19.220;2022-10-31T10:07:26;99455.05;;;16.29;100.00
35291;BME280;21411;50.024;19.220;2022-10-31T10:09:57;99453.77;;;16.41;100.00
35291;BME280;21411;50.024;19.220;2022-10-31T10:12:52;99455.17;;;16.50;100.00
35291;BME280;21411;50.024;19.220;2022-10-31T10:15:54;99455.06;;;16.57;100.00
35291;BME280;21411;50.024;19.220;2022-10-31T10:18:42;99451.77;;;16.71;100.00
35291;BME280;21411;50.024;19.220;2022-10-31T10:24:03;99450.48;;;16.90;100.00
35291;BME280;21411;50.024;19.220;2022-10-31T10:26:38;99447.25;;;16.99;100.00
35291;BME280;21411;50.024;19.220;2022-10-31T10:29:33;99445.18;;;17.08;100.00
35291;BME280;21411;50.024;19.220;2022-10-31T10:32:06;99444.73;;;17.19;100.00
35291;BME280;21411;50.024;19.220;2022-10-31T10:34:44;99442.71;;;17.28;100.00
35291;BME280;21411;50.024;19.220;2022-10-31T10:37:39;99442.53;;;17.39;100.00
35291;BME280;21411;50.024;19.220;2022-10-31T10:40:23;99441.83;;;17.52;100.00
35291;BME280;21411;50.024;19.220;2022-10-31T10:43:00;99445.03;;;17.61;100.00
35291;BME280;21411;50.024;19.220;2022-10-31T10:49:18;99441.98;;;17.79;100.00
35291;BME280;21411;50.024;19.220;2022-10-31T10:57:29;99434.56;;;18.02;100.00
35291;BME280;21411;50.024;19.220;2022-10-31T11:00:00;99435.57;;;18.09;100.00
35291;BME280;21411;50.024;19.220;2022-10-31T11:02:32;99434.76;;;18.16;100.00
35291;BME280;21411;50.024;19.220;2022-10-31T11:05:01;99432.52;;;18.21;100.00
35291;BME280;21411;50.024;19.220;2022-10-31T11:07:38;99434.42;;;18.27;100.00
35291;BME280;21411;50.024;19.220;2022-10-31T11:10:13;99431.48;;;18.32;100.00
35291;BME280;21411;50.024;19.220;2022-10-31T11:12:56;99430.98;;;18.37;100.00
35291;BME280;21411;50.024;19.220;2022-10-31T11:15:25;99427.13;;;18.42;100.00
35291;BME280;21411;50.024;19.220;2022-10-31T11:17:54;99423.34;;;18.46;100.00
35291;BME280;21411;50.024;19.220;2022-10-31T11:20:31;99421.33;;;18.50;100.00
35291;BME280;21411;50.024;19.220;2022-10-31T11:23:19;99417.52;;;18.56;100.00
35291;BME280;21411;50.024;19.220;2022-10-31T11:26:14;99413.23;;;18.61;100.00
35291;BME280;21411;50.024;19.220;2022-10-31T11:28:56;99412.98;;;18.66;100.00
35291;BME280;21411;50.024;19.220;2022-10-31T11:31:23;99413.72;;;18.68;100.00
35291;BME280;21411;50.024;19.220;2022-10-31T11:33:59;99414.36;;;18.69;100.00
35291;BME280;21411;50.024;19.220;2022-10-31T11:36:37;99410.02;;;18.69;100.00
35291;BME280;21411;50.024;19.220;2022-10-31T11:39:05;99411.02;;;18.74;100.00
35291;BME280;21411;50.024;19.220;2022-10-31T11:41:40;99410.23;;;18.78;100.00
35291;BME280;21411;50.024;19.220;2022-10-31T11:44:19;99406.10;;;18.84;100.00
35291;BME280;21411;50.024;19.220;2022-10-31T11:46:49;99406.55;;;18.89;100.00
35291;BME280;21411;50.024;19.220;2022-10-31T11:52:03;99401.06;;;18.96;100.00
35291;BME280;21411;50.024;19.220;2022-10-31T11:54:47;99402.41;;;18.98;100.00
35291;BME280;21411;50.024;19.220;2022-10-31T11:57:33;99402.48;;;19.01;100.00
35291;BME280;21411;50.024;19.220;2022-10-31T12:02:49;99397.80;;;19.07;100.00
35291;BME280;21411;50.024;19.220;2022-10-31T12:05:22;99393.04;;;19.09;100.00
35291;BME280;21411;50.024;19.220;2022-10-31T12:07:50;99391.06;;;19.13;100.00
35291;BME280;21411;50.024;19.220;2022-10-31T12:10:22;99395.10;;;19.20;100.00
35291;BME280;21411;50.024;19.220;2022-10-31T12:15:50;99392.27;;;19.27;100.00
35291;BME280;21411;50.024;19.220;2022-10-31T12:19:03;99389.18;;;19.29;100.00
35291;BME280;21411;50.024;19.220;2022-10-31T12:21:43;99387.21;;;19.31;100.00
35291;BME280;21411;50.024;19.220;2022-10-31T12:24:26;99386.41;;;19.34;100.00
35291;BME280;21411;50.024;19.220;2022-10-31T13:00:16;99362.33;;;19.46;100.00
35291;BME280;21411;50.024;19.220;2022-10-31T13:02:51;99359.86;;;19.45;100.00
35291;BME280;21411;50.024;19.220;2022-10-31T13:05:44;99355.89;;;19.45;100.00
35291;BME280;21411;50.024;19.220;2022-10-31T13:08:16;99356.84;;;19.45;100.00
35291;BME280;21411;50.024;19.220;2022-10-31T13:11:04;99357.35;;;19.45;100.00
35291;BME280;21411;50.024;19.220;2022-10-31T13:13:38;99352.61;;;19.46;100.00
35291;BME280;21411;50.024;19.220;2022-10-31T13:16:19;99351.18;;;19.46;100.00
35291;BME280;21411;50.024;19.220;2022-10-31T13:18:52;99351.73;;;19.44;100.00
35291;BME280;21411;50.024;19.220;2022-10-31T13:21:33;99350.63;;;19.42;100.00
35291;BME280;21411;50.024;19.220;2022-10-31T13:24:04;99351.75;;;19.42;100.00
35291;BME280;21411;50.024;19.220;2022-10-31T13:26:40;99349.20;;;19.40;100.00
35291;BME280;21411;50.024;19.220;2022-10-31T13:29:26;99345.73;;;19.39;100.00
35291;BME280;21411;50.024;19.220;2022-10-31T13:31:54;99349.23;;;19.38;100.00
35291;BME280;21411;50.024;19.220;2022-10-31T13:34:28;99346.16;;;19.36;100.00
35291;BME280;21411;50.024;19.220;2022-10-31T13:45:19;99344.42;;;19.30;100.00
35291;BME280;21411;50.024;19.220;2022-10-31T13:47:57;99348.27;;;19.27;100.00
35291;BME280;21411;50.024;19.220;2022-10-31T13:53:09;99344.85;;;19.22;100.00
35291;BME280;21411;50.024;19.220;2022-10-31T13:55:40;99343.71;;;19.19;100.00
35291;BME280;21411;50.024;19.220;2022-10-31T13:58:26;99344.84;;;19.16;100.00
35291;BME280;21411;50.024;19.220;2022-10-31T14:01:11;99345.46;;;19.14;100.00
35291;BME280;21411;50.024;19.220;2022-10-31T14:03:40;99345.27;;;19.10;100.00
35291;BME280;21411;50.024;19.220;2022-10-31T14:06:09;99348.38;;;19.06;100.00
35291;BME280;21411;50.024;19.220;2022-10-31T14:08:41;99345.83;;;19.00;100.00
35291;BME280;21411;50.024;19.220;2022-10-31T14:11:26;99346.45;;;18.96;100.00
35291;BME280;21411;50.024;19.220;2022-10-31T14:13:55;99346.21;;;18.91;100.00
35291;BME280;21411;50.024;19.220;2022-10-31T14:16:26;99344.14;;;18.86;100.00
35291;BME280;21411;50.024;19.220;2022-10-31T14:19:04;99342.48;;;18.81;100.00
35291;BME280;21411;50.024;19.220;2022-10-31T14:21:41;99345.15;;;18.76;100.00
35291;BME280;21411;50.024;19.220;2022-10-31T14:26:57;99339.36;;;18.64;100.00
35291;BME280;21411;50.024;19.220;2022-10-31T14:46:04;99332.14;;;17.99;100.00
35291;BME280;21411;50.024;19.220;2022-10-31T14:48:37;99331.41;;;17.88;100.00
35291;BME280;21411;50.024;19.220;2022-10-31T14:51:13;99331.84;;;17.77;100.00
35291;BME280;21411;50.024;19.220;2022-10-31T14:53:47;99328.50;;;17.66;100.00
35291;BME280;21411;50.024;19.220;2022-10-31T14:56:21;99329.16;;;17.55;100.00
35291;BME280;21411;50.024;19.220;2022-10-31T14:58:49;99329.19;;;17.43;100.00
35291;BME280;21411;50.024;19.220;2022-10-31T15:01:25;99329.86;;;17.31;100.00
35291;BME280;21411;50.024;19.220;2022-10-31T15:04:07;99328.93;;;17.17;100.00